Results By Gender


Marshman® Triathlon Presented by Kinetic PT

Race Date: Sunday September 18, 2011
Description: 1/4 Mile Swim~12.5 Mile Bike~2 Mile Run
Race Category: Sprint Triathlon
# Entrants in Gender: 242

Choose:
 Gender
Place
Overall
Place
NameCityStateRace AgeGenderDivisionBib#Time
View 1 1 Saunders, Blair Newark DE 46 M M45-49 180 0:54:31
View 2 2 Jones, Rob "smarty" West Chester PA 43 M M40-44 104 0:55:48
View 3 3 Phillips, Ryan West Chester PA 33 M M30-34 54 0:55:49
View 4 4 Sturino, Jesse West Chester PA 50 M M50-54 188 0:57:12
View 5 5 Dawson, John Dorchester NJ 50 M M50-54 205 0:57:32
View 6 6 Clark, Brooks West Chester PA 45 M M45-49 165 0:58:19
View 7 7 Reid, James West Chester PA 50 M M50-54 192 0:59:20
View 8 8 Casey, Kevin Phoenixville PA 32 M M30-34 58 0:59:39
View 9 9 Linder, David West Chester PA 36 M M35-39 83 0:59:49
View 10 10 Rogers, Lenny West Grove PA 44 M Clydesdale 475 1:00:19
View 11 11 Carey, Shawn West Chester PA 46 M M45-49 178 1:00:24
View 12 12 Keefe, Dave " Chief " West Chester PA 38 M M35-39 68 1:00:31
View 13 13 Howe, Christopher West Chester PA 44 M M40-44 126 1:00:47
View 14 14 Sulzer, Paul Elkton MD 25 M M25-29 447 1:00:55
View 15 15 Schweidler, Olaf West Chester PA 44 M M40-44 105 1:01:08
View 16 16 Jester, Deron West Chester PA 39 M M35-39 98 1:01:36
View 17 18 Botes, Eugene Thornton PA 31 M Clydesdale 262 1:02:00
View 18 19 Manning, Jess Dover DE 34 M M30-34 64 1:02:04
View 19 20 Manion, John West Chester PA 38 M M35-39 77 1:02:04
View 20 21 Kreger, Bryan Pottstown PA 43 M M40-44 116 1:02:07
View 21 22 Siegel, Jeffrey West Chester PA 44 M M40-44 115 1:02:28
View 22 23 Day, Daniel Lancaster PA 49 M M45-49 456 1:02:39
View 23 24 Yanacek, John Milford DE 45 M Clydesdale 478 1:03:17
View 24 25 Fritsche, Todd Phoenixville PA 51 M M50-54 186 1:03:37
View 25 26 Levy, Tom Sinking Spring PA 46 M M45-49 457 1:03:42
View 26 27 Kipping-ruane, Alan Chadds Ford PA 24 M M20-24 9 1:03:45
View 27 28 Stedman, Hansell Norristown, PA 54 M M50-54 182 1:03:50
View 28 29 Dawson, Bill West Chester PA 60 M M60-64 218 1:04:01
View 29 30 Markle, Jeffrey Glenmoore PA 47 M M45-49 147 1:04:11
View 30 31 Cannon, Robert Collegeville PA 53 M M50-54 181 1:04:22
View 31 32 Mangus, Marc Morristown NJ 33 M M30-34 60 1:04:41
View 32 33 Harris, Daniel Downingtown PA 31 M M30-34 41 1:04:54
View 33 34 Hutchison, James Dover DE 55 M M55-59 216 1:04:56
View 34 35 Haile, Mike Downingtown PA 31 M M30-34 59 1:05:01
View 35 36 Porfido, Chip Malven PA 55 M M55-59 206 1:05:02
View 36 37 Hartman, Jeffrey Philadelphia PA 35 M M35-39 96 1:05:08
View 37 38 Gabb, Jonathan Phoenixville PA 40 M M40-44 123 1:05:09
View 38 39 Mastro, William Philadelphia PA 30 M M30-34 44 1:05:13
View 39 40 Smith, Cameron Lafayette Hill PA 49 M M45-49 158 1:05:22
View 40 41 Langan, Mark West Chester PA 42 M M40-44 121 1:05:26
View 41 42 Tarantino, Tylor Glen Burnie MD 23 M M20-24 8 1:05:30
View 42 43 Marino, Christopher Downingtown PA 37 M M35-39 66 1:05:34
View 43 44 Hartman, Kenrick Brooklyn NY 26 M M25-29 27 1:05:41
View 44 45 Fulginiti, Michael Aston PA 28 M M25-29 25 1:05:43
View 45 46 Bireley, Christopher Thorndale PA 29 M M25-29 448 1:06:03
View 46 47 Fungairino, Antonio Downingtown PA 41 M M40-44 108 1:06:08
View 47 49 Lutcher, Fred West Chester PA 38 M M35-39 71 1:06:23
View 48 50 Davison, Andrew Downingtown PA 29 M M25-29 29 1:06:34
View 49 52 Capuano, Mike Pike Creek DE 41 M Clydesdale 477 1:06:47
View 50 53 Lowe, Mitchell --- M M0-19 445 1:06:58
View 51 55 Foster, Paul West Chester PA 50 M Clydesdale 263 1:07:24
View 52 57 Andrews, Jeff Phoenixville PA 41 M M40-44 124 1:07:29
View 53 58 Nutter, Christopher Dover DE 42 M M40-44 103 1:07:43
View 54 59 Manzella, Joseph Macungie PA 47 M M45-49 174 1:07:55
View 55 60 Springuel, Francois Collegevilla PA 29 M M25-29 36 1:08:25
View 56 61 Buttz, Charles Spring City PA 51 M M50-54 198 1:08:36
View 57 63 Jackson, Mike Mohnton PA 32 M M30-34 62 1:08:39
View 58 64 Girafalco, Julian Downingtown PA 28 M M25-29 33 1:08:42
View 59 65 Britton, Doug Norristown PA 42 M M40-44 455 1:08:45
View 60 66 Stalford, Matthew --- M M0-19 7 1:08:50
View 61 68 Christ, Bryan Pottstown PA 42 M M40-44 136 1:08:55
View 62 69 Heintzelman, Matthew Wayne PA 43 M M40-44 453 1:09:03
View 63 71 Kulesza, Ryan West Chester PA 29 M M25-29 31 1:09:52
View 64 72 Mize, Michael Downingtown PA 31 M M30-34 42 1:09:55
View 65 73 Shanaman, Derek Glenmoore PA 17 M M0-19 3 1:10:01
View 66 74 Karr, Robert Glenmoore PA 27 M M25-29 30 1:10:04
View 67 75 Parsley, Edward Philadelphia PA 44 M M40-44 144 1:10:15
View 68 76 Hontz, Keith West Chester PA 43 M M40-44 454 1:10:43
View 69 77 Kalucki, Tom Chester Springs PA 41 M M40-44 102 1:10:50
View 70 79 Silvera, David Bryn Mawr PA 47 M M45-49 163 1:11:09
View 71 80 Franz, Gerard Mount Laurel NJ 51 M M50-54 203 1:11:26
View 72 81 Alderfer, Mark Oreland PA 56 M M55-59 211 1:11:27
View 73 82 Ridpath, Kevin Springfield PA 37 M M35-39 70 1:11:28
View 74 83 Blow, Jonathan Downingtown PA 27 M M25-29 26 1:11:37
View 75 84 Fenimore, David Coatesville PA 47 M M45-49 167 1:11:47
View 76 85 Krauss, Michael Woolwich Twp. NJ 37 M M35-39 100 1:11:50
View 77 86 Khan, Joe Philadelphia PA 36 M M35-39 450 1:11:58
View 78 87 Vanocker, David Berwyn PA 54 M M50-54 196 1:12:02
View 79 88 Wnenchak, Ray Newark DE 49 M M45-49 168 1:12:05
View 80 89 Connelly, Michael Limerick PA 46 M M45-49 170 1:12:05
View 81 91 Sheeder, James Ligonier PA 41 M M40-44 117 1:12:09
View 82 93 Thir, Jonathan Glenmoore PA 43 M M40-44 135 1:12:11
View 83 95 O'sullivan, Sean Collegeville PA 41 M M40-44 127 1:12:15
View 84 96 Lyle, Trevor Harleysville PA 56 M M55-59 207 1:12:42
View 85 97 Kelly, Stephen West Chester PA 47 M M45-49 157 1:12:43
View 86 98 Smith, Stephen Warrington PA 35 M M35-39 73 1:12:45
View 87 99 Schanck, Mark Glenmoore PA 42 M M40-44 137 1:12:48
View 88 100 Glysing-jensen, Troels Chester Springs PA 45 M M45-49 156 1:12:54
View 89 101 Goodstein, Daniel Downingtown PA 44 M M40-44 139 1:12:58
View 90 102 Clift, Ryan Manheim PA 28 M M25-29 268 1:13:06
View 91 103 Kowalczyk, Thomas Jamison PA 33 M M30-34 52 1:13:10
View 92 107 Leff, Todd Warrington PA 52 M M50-54 193 1:14:08
View 93 108 Fort, Daniel West Chester PA 36 M M35-39 92 1:14:10
View 94 109 Mackrell, Kevin Exton PA 40 M M40-44 128 1:14:11
View 95 110 Walker, Patrick Downingtown PA 58 M M55-59 217 1:14:39
View 96 111 Hicks, Kevin Chadds Ford PA 39 M M35-39 85 1:14:41
View 97 112 Pelton, Dave St Davids PA 50 M M50-54 458 1:14:48
View 98 113 Brocious, Mike Downingtown PA 47 M M45-49 177 1:14:50
View 99 114 Eliason, Mark Media PA 49 M M45-49 148 1:14:52
View 100 115 Hellgoth, John Downingtown PA 43 M M40-44 131 1:14:53
View 101 118 Muench, Theo Jessup MD 32 M M30-34 48 1:15:03
View 102 119 Reem, Michael Morgantown PA 25 M M25-29 34 1:15:11
View 103 120 Kedra, Charles Downingtown PA 47 M M45-49 179 1:15:12
View 104 121 Heiss, Brian West Chester PA 51 M M50-54 197 1:15:13
View 105 122 Obusek, Andrew Wayne PA 30 M M30-34 56 1:15:15
View 106 123 Fulginiti, V. Michael Aston PA 54 M M50-54 187 1:15:20
View 107 124 Mitchell, Maximilian Roslyn PA 20 M M20-24 18 1:15:23
View 108 125 White, Stephen Eagleville PA 27 M Clydesdale 252 1:15:26
View 109 126 Herczeg, Pete Oreland PA 40 M M40-44 143 1:15:27
View 110 127 Lebuhn, Bruce Rose Valley PA 43 M M40-44 142 1:15:29
View 111 128 Szabo, David Doylestown PA 38 M M35-39 72 1:15:37
View 112 129 Wesler, Jon Royersford PA 35 M M35-39 91 1:15:48
View 113 130 Davidson, Joshua Downingtown PA 42 M M40-44 111 1:15:55
View 114 132 Fisher, Todd Westampton NJ 41 M M40-44 122 1:16:14
View 115 133 Lantzy, Mike Greensburg PA 55 M M55-59 212 1:16:16
View 116 134 Cambre, Matthew Baltimore MD 24 M M20-24 13 1:16:21
View 117 136 Larosa, Stephen Downingtown PA 24 M M20-24 10 1:16:22
View 118 137 Bria, Mike Plymouth Meeting PA 35 M M35-39 99 1:16:35
View 119 138 Stout, Vincent Perkasie PA 27 M M25-29 32 1:16:37
View 120 139 Brush, Stephen Hillsborough NJ 23 M M20-24 14 1:16:40
View 121 140 Knox, Adam West Chester PA 37 M M35-39 69 1:16:40
View 122 141 Lamastra, Carl Royersford PA 47 M M45-49 150 1:16:46
View 123 142 Lantzy, Robert New Hope PA 54 M M50-54 191 1:16:48
View 124 145 Mannello, Edward West Chester PA 45 M M45-49 173 1:17:06
View 125 146 Captis, Thomas Downingtown PA 54 M M50-54 204 1:17:08
View 126 148 Malone, James Elverson PA 35 M M35-39 76 1:17:13
View 127 149 Ruth, Eric Exton PA 36 M M35-39 84 1:17:14
View 128 150 Stone, Derek Downingtown PA 38 M M35-39 95 1:17:14
View 129 151 Marjoram, Stuart Hatfield PA 34 M M30-34 449 1:17:37
View 130 153 Grossman, Lenny Harleysville PA 51 M M50-54 200 1:17:59
View 131 154 Fischer, Steve Glen Mills PA 54 M M50-54 199 1:18:05
View 132 156 Cooper, William Chester Springs PA 38 M Clydesdale 254 1:18:12
View 133 157 Parsons, Brian Downingtown PA 32 M M30-34 51 1:18:13
View 134 158 Koehnlein, Jim Timonium MD 52 M M50-54 184 1:18:14
View 135 164 Mariotti, Adam Berwyn PA 33 M M30-34 55 1:18:37
View 136 165 Dever, Timothy West Chester PA 50 M M50-54 195 1:18:47
View 137 167 Hoey, Peter Doylestown PA 50 M M50-54 459 1:18:48
View 138 168 Muench, Nate Collegeville PA 35 M M35-39 80 1:18:53
View 139 169 May, Eric Exton PA 38 M M35-39 93 1:19:01
View 140 170 Ginaldi, Jules Furlong PA 45 M M45-49 149 1:19:02
View 141 174 Mitchell, Jonathan Roslyn PA 24 M M20-24 19 1:19:33
View 142 176 Maccausland, Bryan Downingtown PA 49 M Clydesdale 256 1:19:54
View 143 177 Black, Paul West Chester PA 29 M Clydesdale 479 1:20:02
View 144 181 Brereton, Stuart Maple Glen PA 40 M M40-44 130 1:20:36
View 145 182 Wood, Brian West Chester PA 37 M Clydesdale 240 1:20:51
View 146 186 O'connell, Ryan Chester Springs PA 37 M M35-39 87 1:21:05
View 147 189 Rigsbee, Jim Wallingford PA 42 M M40-44 132 1:21:22
View 148 192 Coffey, William Devon PA 36 M M35-39 86 1:21:41
View 149 193 Adams, Keith Phoenixville PA 33 M Clydesdale 266 1:21:41
View 150 194 Bach, Stephen Downingtown PA 40 M Clydesdale 231 1:21:42
View 151 196 Gilbert, Paul Downingtown PA 55 M M55-59 208 1:21:48
View 152 203 Nassau, Andrew Malvern PA 23 M M20-24 11 1:22:19
View 153 204 Bronstein, Ben Milford DE 28 M M25-29 40 1:22:22
View 154 205 Hermans, Hans Downingtown PA 47 M M45-49 169 1:22:26
View 155 207 Valaitis, Joseph Downingtown PA 40 M Clydesdale 112 1:22:27
View 156 208 Santeusanio, David Marblehead MA 39 M M35-39 90 1:22:32
View 157 212 Cobaugh, Peter Sinking Spring PA 44 M Clydesdale 239 1:22:50
View 158 214 Mccarel, Dan Ardmore PA 68 M M65-69 225 1:22:51
View 159 215 Everitt, Richard Bethesda MD 40 M M40-44 119 1:22:52
View 160 218 Olintz, Steve Drexel Hill PA 35 M M35-39 79 1:23:08
View 161 223 Westbrook, Kent Newtown PA 52 M Clydesdale 261 1:23:33
View 162 225 Goble, Nathanael Shrewsbury PA 24 M M20-24 21 1:23:53
View 163 227 D'orazio, Dino Collegeville PA 30 M Clydesdale 257 1:23:57
View 164 232 Laws, Andrew West Chester PA 40 M M40-44 140 1:24:10
View 165 233 Lobb, Daniel Glenmoore PA 46 M M45-49 171 1:24:11
View 166 234 Incollingo, Mario Glenmoore PA 42 M M40-44 134 1:24:11
View 167 235 Van Wormer, Phil Wilmington DE 53 M M50-54 202 1:24:16
View 168 236 De Long, Keith Reading PA 49 M M45-49 176 1:24:16
View 169 237 Moore, Jonathan Philadelphia PA 39 M Clydesdale 269 1:24:18
View 170 239 Mccormick, Bryan Havertown PA 33 M M30-34 46 1:24:40
View 171 240 Mcdonald, Matt Malvern PA 41 M Clydesdale 246 1:24:42
View 172 241 Basquill, Kevin Annapolis MD 49 M M45-49 162 1:25:00
View 173 243 Keefe, John West Chester PA 42 M M40-44 118 1:25:16
View 174 244 Craig, Robert Newark DE 25 M Clydesdale 251 1:25:17
View 175 245 Cole, Andrew --- M M0-19 6 1:25:19
View 176 246 Skiff, Michael Downingtown PA 34 M Clydesdale 235 1:25:19
View 177 247 Cambre, Jack Havre De Grace MD 20 M M20-24 16 1:25:23
View 178 250 Kennedy, Timothy Chester Springs PA 42 M Clydesdale 244 1:25:54
View 179 253 Dorris, Ken Pottstown PA 37 M M35-39 65 1:26:07
View 180 254 Pickford, Steve Lansdale PA 44 M Clydesdale 265 1:26:09
View 181 255 Correll, Gary Laureldale PA 68 M M65-69 224 1:26:12
View 182 256 Young, Eric Coatesville PA 34 M M30-34 50 1:26:29
View 183 259 Schalleur, Chris Harleysville PA 39 M M35-39 78 1:27:06
View 184 263 Brown, Tim Brookhaven PA 32 M M30-34 63 1:28:23
View 185 266 Wiest, Kurt Sellersville PA 46 M Clydesdale 255 1:28:32
View 186 268 Irwin, Christopher Harleysville PA 26 M M25-29 38 1:28:41
View 187 270 Pozun, Robert Exton PA 26 M M25-29 39 1:28:45
View 188 271 Murphy, Daniel West Chester PA 40 M M40-44 141 1:28:47
View 189 272 Dunning, Britt Wallingford PA 45 M M45-49 175 1:28:48
View 190 275 McCabe, James Mt Laurel NJ 49 M M45-49 480 1:29:32
View 191 276 Foley, Edward West Chester PA 57 M Clydesdale 259 1:29:49
View 192 278 Kumar, Vivek Philadelphia PA 28 M M25-29 28 1:30:12
View 193 283 Stephens, Abe Downingtown PA 37 M Clydesdale 237 1:30:34
View 194 284 Waldron, Mark Berwyn PA 53 M Clydesdale 247 1:30:35
View 195 287 Sutton, Tom Chalfont PA 50 M M50-54 201 1:30:54
View 196 288 Marusa, Damien Chester Springs PA 37 M M35-39 97 1:30:57
View 197 289 Litzenberg, Scott Kennett Square PA 49 M M45-49 172 1:31:07
View 198 290 Carpenter, James Pottstown PA 48 M Clydesdale 248 1:31:07
View 199 292 Morrow, Sean Phoenixville PA 30 M M30-34 57 1:31:16
View 200 294 Rosenberg, Max Philadelphia PA 24 M M20-24 17 1:31:19
View 201 296 Potts, John Glenmoore PA 41 M Clydesdale 228 1:31:52
View 202 297 Lagarde, Chris Coatesville PA 33 M M30-34 53 1:31:56
View 203 298 Macera, John Havertown PA 34 M M30-34 47 1:32:09
View 204 302 Sanfelice, Paul King Of Prussia PA 44 M M40-44 133 1:32:21
View 205 303 Booz, Ian Pennsville NJ 24 M M20-24 20 1:32:22
View 206 306 Schulz, Randy Phoenixville PA 45 M M45-49 160 1:32:34
View 207 308 Singer, Donald Phoenixville PA 58 M M55-59 215 1:33:07
View 208 311 Greer, J. Roger Coatesville PA 45 M M45-49 154 1:33:31
View 209 312 Kauffman, Doug Christiana PA 41 M Clydesdale 260 1:33:37
View 210 315 Haidri, Mujteba East Windsor NJ 28 M M25-29 37 1:34:00
View 211 317 Lefevre, Robert Collegeville PA 59 M M55-59 209 1:34:31
View 212 318 Mcaleer, David Rock Hall MD 61 M M60-64 221 1:34:39
View 213 319 Tiffany, Scott Norristown PA 45 M M45-49 153 1:34:40
View 214 320 Goldberg, Joe Chadds Ford PA 63 M M60-64 219 1:34:49
View 215 322 Batty, Dan Chester Springs PA 38 M Clydesdale 474 1:34:53
View 216 325 Willenbrock, Pete Glenmoore PA 45 M Clydesdale 227 1:35:00
View 217 327 Mckenna, Peter Wayne PA 42 M M40-44 120 1:35:31
View 218 329 Saunders, Sean Malvern PA 52 M M50-54 194 1:35:36
View 219 330 Pomento, Brian Phoenixville PA 47 M M45-49 155 1:35:38
View 220 333 Levy, Robert Philadelphia PA 69 M M65-69 222 1:35:57
View 221 334 Morello, Sal Collegeville PA 41 M M40-44 138 1:35:58
View 222 338 Grill, Bob Lansdowne PA 58 M M55-59 214 1:36:43
View 223 340 Forgione, Greg Springfield PA 39 M M35-39 88 1:36:46
View 224 342 Anastasi, Vincent West Chester PA 49 M M45-49 166 1:37:04
View 225 346 Longenecker, David Parkesburg PA 39 M M35-39 452 1:38:08
View 226 347 Webber, Thomas Bel Air MD 36 M Clydesdale 242 1:38:11
View 227 354 Bradley, Bryan N. Potomac MD 16 M M0-19 446 1:41:24
View 228 356 Liu, Jimmy West Chester PA 45 M M45-49 159 1:42:11
View 229 359 Callan, Gerard Feasterville PA 32 M M30-34 43 1:42:27
View 230 360 Denardo, Christopher West Chester PA 40 M Clydesdale 230 1:42:33
View 231 361 Espenshade, Mike Malvern PA 41 M M40-44 114 1:43:01
View 232 364 Vogt, Gregory Limerick PA 39 M Clydesdale 253 1:43:08
View 233 368 Kerper, Phillip West Chester PA 37 M Clydesdale 241 1:45:13
View 234 369 Joseph, Daniel Chalfont PA 38 M Clydesdale 243 1:45:27
View 235 372 Rodriguez, Todd Downingtown PA 42 M M40-44 110 1:46:16
View 236 385 Izzi, Mike Feasterville PA 47 M M45-49 164 1:49:43
View 237 386 Keefe, Jack West Chester PA 71 M M70-74 226 1:49:52
View 238 389 Howard, Charles Wynnewood PA 33 M Clydesdale 264 1:54:37
View 239 390 Cambre, John Havre De Grace MD 62 M M60-64 220 1:54:43
View 240 391 Schoenrock, Kendall Philadelphia PA 30 M Clydesdale 258 1:54:51
View 241 395 Flaherty, Gerry Downingtown PA 45 M Clydesdale 229 1:57:32
View 242 398 Mcgriff, Detrick Havertown PA 41 M Clydesdale 267 2:03:48